createdAt,value
2023-03-26T00:01:13.967Z,85.33
2023-03-26T00:04:02.116Z,85.43
2023-03-26T00:06:51.505Z,85.51
2023-03-26T00:09:38.874Z,85.60
2023-03-26T00:12:25.886Z,85.15
2023-03-26T00:15:12.763Z,85.96
2023-03-26T00:17:59.925Z,85.11
2023-03-26T00:20:48.099Z,85.24
2023-03-26T00:23:35.085Z,85.73
2023-03-26T00:26:23.464Z,85.73
2023-03-26T00:29:10.642Z,86.00
2023-03-26T00:32:00.483Z,86.04
2023-03-26T00:34:47.382Z,85.83
2023-03-26T00:37:34.294Z,85.08
2023-03-26T00:40:27.130Z,85.92
2023-03-26T00:43:14.101Z,85.39
2023-03-26T00:46:01.018Z,85.81
2023-03-26T00:48:48.549Z,85.82
2023-03-26T00:51:38.203Z,85.25
2023-03-26T00:54:25.152Z,85.52
2023-03-26T00:57:13.762Z,85.45
2023-03-26T01:00:05.082Z,84.79
2023-03-26T01:02:52.120Z,85.28
2023-03-26T01:05:54.546Z,84.77
2023-03-26T01:09:03.979Z,85.04
2023-03-26T01:11:53.596Z,85.19
2023-03-26T01:14:45.041Z,85.49
2023-03-26T01:17:33.183Z,85.47
2023-03-26T01:20:26.220Z,85.15
2023-03-26T01:23:19.734Z,85.06
2023-03-26T01:26:16.606Z,84.59
2023-03-26T01:29:03.641Z,84.64
2023-03-26T01:31:57.798Z,84.78
2023-03-26T01:34:56.503Z,84.97
2023-03-26T01:37:53.152Z,84.97
2023-03-26T01:40:58.081Z,85.07
2023-03-26T01:44:11.306Z,84.96
2023-03-26T01:46:59.168Z,84.92
2023-03-26T01:49:48.712Z,84.55
2023-03-26T01:52:41.864Z,84.62
2023-03-26T01:55:30.429Z,84.67
2023-03-26T01:58:38.038Z,84.77
2023-03-26T02:01:43.616Z,84.41
2023-03-26T02:05:14.730Z,84.29
2023-03-26T02:08:36.974Z,84.43
2023-03-26T02:11:35.455Z,84.01
2023-03-26T02:14:25.225Z,84.60
2023-03-26T02:17:12.257Z,84.64
2023-03-26T02:20:02.534Z,84.27
2023-03-26T02:22:49.449Z,84.27
2023-03-26T02:25:40.575Z,84.71
2023-03-26T02:28:27.721Z,84.53
2023-03-26T02:31:14.975Z,84.80
2023-03-26T02:34:02.024Z,84.22
2023-03-26T02:36:51.817Z,84.89
2023-03-26T02:39:39.083Z,84.57
2023-03-26T02:42:37.497Z,84.02
2023-03-26T02:45:26.156Z,84.58
2023-03-26T02:48:36.640Z,84.26
2023-03-26T02:51:35.431Z,84.61
2023-03-26T02:54:25.735Z,84.38
2023-03-26T02:57:18.549Z,83.97
2023-03-26T03:00:05.515Z,84.33
2023-03-26T03:02:58.143Z,84.44
2023-03-26T03:05:54.426Z,84.04
2023-03-26T03:08:48.933Z,84.29
2023-03-26T03:11:55.386Z,84.16
2023-03-26T03:14:42.486Z,84.15
2023-03-26T03:17:29.479Z,84.08
2023-03-26T03:20:16.478Z,84.01
2023-03-26T03:23:04.033Z,84.01
2023-03-26T03:25:51.283Z,84.15
2023-03-26T03:28:38.862Z,83.95
2023-03-26T03:31:25.760Z,84.11
2023-03-26T03:34:16.326Z,83.94
2023-03-26T03:37:08.440Z,83.88
2023-03-26T03:40:03.617Z,83.74
2023-03-26T03:42:52.577Z,83.68
2023-03-26T03:45:49.348Z,83.43
2023-03-26T03:48:49.774Z,83.78
2023-03-26T03:51:41.891Z,83.93
2023-03-26T03:54:40.182Z,83.44
2023-03-26T03:57:41.220Z,83.79
2023-03-26T04:00:33.859Z,83.28
2023-03-26T04:03:40.996Z,83.56
2023-03-26T04:06:33.099Z,83.59
2023-03-26T04:09:20.148Z,83.40
2023-03-26T04:12:08.507Z,83.12
2023-03-26T04:14:55.591Z,83.36
2023-03-26T04:17:43.454Z,83.27
2023-03-26T04:20:33.117Z,83.04
2023-03-26T04:23:20.950Z,83.12
2023-03-26T04:26:13.895Z,83.14
2023-03-26T04:29:23.390Z,83.15
2023-03-26T04:32:12.277Z,83.16
2023-03-26T04:34:59.251Z,83.41
2023-03-26T04:38:01.960Z,82.95
2023-03-26T10:44:21.897Z,87.83
2023-03-26T10:47:31.146Z,86.25
2023-03-26T10:50:22.845Z,86.21
2023-03-26T10:52:57.278Z,85.16
2023-03-26T10:55:37.549Z,85.14
2023-03-26T10:58:29.687Z,85.43
2023-03-26T11:01:28.830Z,85.40
2023-03-26T11:04:01.546Z,85.57
2023-03-26T11:06:46.104Z,85.57
2023-03-26T11:09:28.852Z,85.40
2023-03-26T11:12:26.274Z,85.39
2023-03-26T11:15:29.666Z,86.12
2023-03-26T11:18:15.555Z,85.88
2023-03-26T11:20:45.314Z,86.31
2023-03-26T11:23:26.186Z,86.65
2023-03-26T11:26:14.691Z,86.58
2023-03-26T11:29:32.600Z,86.98
2023-03-26T11:32:13.202Z,87.21
2023-03-26T11:34:52.383Z,87.64
2023-03-26T11:37:34.604Z,87.53
2023-03-26T11:40:07.608Z,88.22
2023-03-26T11:42:34.710Z,88.65
2023-03-26T11:45:21.934Z,88.66
2023-03-26T11:47:53.009Z,89.22
2023-03-26T11:50:32.812Z,89.07
2023-03-26T11:53:11.744Z,89.59
2023-03-26T11:55:48.752Z,90.03
2023-03-26T11:58:29.841Z,89.78
2023-03-26T12:00:57.376Z,89.88
2023-03-26T12:03:24.494Z,90.61
2023-03-26T12:05:58.364Z,90.83
2023-03-26T12:08:38.046Z,90.83
2023-03-26T12:11:12.342Z,91.63
2023-03-26T12:13:52.308Z,91.26
2023-03-26T12:16:21.630Z,91.11
2023-03-26T12:19:00.996Z,92.28
2023-03-26T12:21:28.070Z,92.00
2023-03-26T12:24:00.043Z,92.60
2023-03-26T12:26:34.130Z,93.08
2023-03-26T12:29:08.195Z,92.64
2023-03-26T12:32:04.971Z,93.34
2023-03-26T12:34:38.277Z,93.23
2023-03-26T12:37:07.966Z,93.50
2023-03-26T12:40:10.040Z,93.39
2023-03-26T12:44:45.243Z,93.48
2023-03-26T12:45:23.989Z,93.98
2023-03-26T12:47:58.377Z,93.87
2023-03-26T12:50:42.781Z,93.82
2023-03-26T12:53:33.787Z,94.14
2023-03-26T12:56:12.352Z,94.11
2023-03-26T12:59:04.027Z,94.04
2023-03-26T13:01:43.870Z,94.01
2023-03-26T13:04:20.633Z,93.55
2023-03-26T13:07:13.406Z,93.70
2023-03-26T13:10:11.210Z,94.20
2023-03-26T13:12:54.451Z,94.29
2023-03-26T13:15:28.695Z,93.76
2023-03-26T13:18:02.314Z,93.60
2023-03-26T13:20:40.223Z,93.83
2023-03-26T13:23:27.255Z,94.39
2023-03-26T13:26:25.005Z,94.72
2023-03-26T13:29:00.655Z,94.05
2023-03-26T13:31:36.348Z,94.00
2023-03-26T13:34:09.203Z,94.17
2023-03-26T13:37:04.430Z,94.85
2023-03-26T13:39:42.462Z,94.50
2023-03-26T13:42:12.466Z,94.46
2023-03-26T13:45:20.870Z,94.34
2023-03-26T13:47:50.823Z,94.28
2023-03-26T13:50:32.819Z,94.20
2023-03-26T13:53:06.869Z,94.30
2023-03-26T13:55:47.544Z,94.74
2023-03-26T13:58:34.605Z,94.56
2023-03-26T14:01:07.919Z,95.21
2023-03-26T14:03:58.675Z,94.70
2023-03-26T14:06:46.618Z,94.74
2023-03-26T14:09:38.467Z,94.55
2023-03-26T14:12:24.495Z,94.94
2023-03-26T14:14:57.331Z,94.83
2023-03-26T14:17:36.943Z,94.83
2023-03-26T14:20:22.893Z,94.90
2023-03-26T14:23:07.612Z,94.78
2023-03-26T14:25:53.886Z,94.69
2023-03-26T14:28:53.802Z,94.43
2023-03-26T14:32:05.708Z,94.40
2023-03-26T14:34:43.205Z,94.74
2023-03-26T14:37:27.365Z,94.26
2023-03-26T14:40:25.238Z,94.47
2023-03-26T14:43:12.865Z,95.14
2023-03-26T14:45:57.938Z,94.68
2023-03-26T14:48:37.286Z,94.60
2023-03-26T14:51:35.200Z,94.18
2023-03-26T14:54:14.802Z,94.16
2023-03-26T14:57:03.400Z,94.10
2023-03-26T14:59:49.290Z,94.04
2023-03-26T15:02:54.435Z,94.49
2023-03-26T15:05:36.397Z,93.75
2023-03-26T15:08:06.349Z,93.80
2023-03-26T15:10:55.193Z,94.06
2023-03-26T15:13:55.210Z,93.86
2023-03-26T15:16:28.241Z,93.66
2023-03-26T15:19:04.377Z,93.40
2023-03-26T15:21:51.158Z,93.62
2023-03-26T15:24:38.904Z,93.41
2023-03-26T15:27:30.514Z,92.96
2023-03-26T15:30:12.452Z,93.07
2023-03-26T15:32:45.201Z,93.72
2023-03-26T15:35:25.925Z,93.39
2023-03-26T15:38:17.937Z,93.71
2023-03-26T15:40:59.257Z,93.34
2023-03-26T15:43:58.219Z,92.83
2023-03-26T15:47:14.246Z,92.91
2023-03-26T15:49:45.553Z,92.87
2023-03-26T15:52:39.554Z,93.33
2023-03-26T15:55:29.175Z,92.97
2023-03-26T15:58:09.134Z,93.67
2023-03-26T16:00:44.124Z,93.39
2023-03-26T16:03:10.965Z,93.77
2023-03-26T16:05:56.329Z,93.70
2023-03-26T16:08:26.063Z,93.42
2023-03-26T16:10:53.083Z,93.05
2023-03-26T16:13:20.313Z,93.50
2023-03-26T16:15:58.654Z,93.50
2023-03-26T16:18:29.931Z,93.22
2023-03-26T16:21:31.493Z,93.19
2023-03-26T16:24:02.555Z,93.51
2023-03-26T16:26:45.556Z,93.88
2023-03-26T16:29:18.353Z,93.80
2023-03-26T16:32:16.768Z,93.15
2023-03-26T16:34:58.251Z,93.93
2023-03-26T16:38:05.811Z,93.99
2023-03-26T16:40:35.304Z,93.38
2023-03-26T16:43:30.438Z,93.13
2023-03-26T16:46:06.349Z,93.85
2023-03-26T16:48:58.247Z,93.79
2023-03-26T16:51:47.008Z,93.37
2023-03-26T16:54:36.210Z,92.97
2023-03-26T16:57:16.303Z,93.50
2023-03-26T17:00:06.435Z,92.81
2023-03-26T17:02:55.136Z,93.13
2023-03-26T17:05:57.617Z,93.39
2023-03-26T17:08:57.021Z,93.09
2023-03-26T17:11:44.777Z,93.36
2023-03-26T17:14:32.960Z,93.07
2023-03-26T17:17:02.729Z,92.88
2023-03-26T17:19:49.330Z,93.58
2023-03-26T17:22:35.989Z,93.72
2023-03-26T17:25:32.307Z,93.92
2023-03-26T17:28:35.357Z,94.08
2023-03-26T17:31:23.656Z,93.85
2023-03-26T17:33:51.653Z,93.64
2023-03-26T17:36:41.346Z,93.25
2023-03-26T17:39:39.114Z,93.05
2023-03-26T17:42:32.840Z,92.89
2023-03-26T17:45:02.577Z,92.55
2023-03-26T17:47:30.402Z,93.46
2023-03-26T17:50:27.134Z,92.41
2023-03-26T17:53:01.344Z,92.44
2023-03-26T17:55:31.741Z,92.13
2023-03-26T17:58:04.090Z,93.06
2023-03-26T18:00:43.649Z,91.96
2023-03-26T18:03:21.546Z,92.15
2023-03-26T18:05:55.923Z,91.50
2023-03-26T18:08:37.162Z,91.69
2023-03-26T18:11:20.385Z,91.60
2023-03-26T18:14:19.715Z,91.90
2023-03-26T18:16:53.293Z,92.24
2023-03-26T18:19:23.029Z,90.89
2023-03-26T18:21:53.011Z,91.77
2023-03-26T18:24:40.436Z,91.66
2023-03-26T18:27:12.401Z,91.58
2023-03-26T18:29:44.978Z,91.89
2023-03-26T18:32:12.133Z,91.85
2023-03-26T18:34:46.587Z,90.52
2023-03-26T18:37:35.984Z,90.62
2023-03-26T18:40:14.632Z,90.81
2023-03-26T18:42:47.097Z,90.26
2023-03-26T18:45:32.209Z,90.93
2023-03-26T18:48:06.616Z,90.85
2023-03-26T18:50:36.978Z,90.25
2023-03-26T18:53:06.441Z,90.96
2023-03-26T18:55:39.632Z,90.14
2023-03-26T18:58:22.281Z,89.78
2023-03-26T19:00:53.003Z,90.01
2023-03-26T19:03:22.527Z,89.67
2023-03-26T19:05:52.005Z,89.85
2023-03-26T19:08:20.325Z,90.16
2023-03-26T19:10:48.211Z,90.08
2023-03-26T19:13:15.477Z,89.34
2023-03-26T19:15:45.411Z,89.51
2023-03-26T19:18:30.788Z,89.54
2023-03-26T19:20:59.773Z,89.76
2023-03-26T19:23:32.345Z,89.37
2023-03-26T19:26:02.550Z,89.58
2023-03-26T19:28:33.671Z,89.40
2023-03-26T19:31:31.956Z,88.70
2023-03-26T19:34:24.451Z,88.54
2023-03-26T19:37:09.540Z,89.60
2023-03-26T19:39:41.689Z,89.07
2023-03-26T19:42:16.249Z,89.42
2023-03-26T19:44:43.690Z,89.34
2023-03-26T19:47:39.110Z,89.12
2023-03-26T19:50:15.607Z,88.96
2023-03-26T19:52:42.541Z,88.25
2023-03-26T19:55:42.383Z,88.33
2023-03-26T19:58:30.356Z,88.10
2023-03-26T20:01:17.274Z,89.24
2023-03-26T20:04:06.947Z,88.35
2023-03-26T20:06:53.759Z,88.63
2023-03-26T20:09:40.526Z,88.15
2023-03-26T20:12:27.408Z,87.98
2023-03-26T20:15:19.376Z,88.68
2023-03-26T20:18:06.854Z,88.32
2023-03-26T20:20:54.279Z,88.47
2023-03-26T20:23:41.523Z,88.78
2023-03-26T20:26:33.815Z,88.65
2023-03-26T20:29:20.716Z,88.00
2023-03-26T20:32:07.600Z,88.81
2023-03-26T20:34:54.462Z,88.80
2023-03-26T20:37:41.380Z,88.54
2023-03-26T20:40:28.904Z,88.25
2023-03-26T20:43:15.979Z,88.39
2023-03-26T20:46:03.058Z,88.49
2023-03-26T20:48:50.176Z,88.47
2023-03-26T20:51:38.498Z,88.96
2023-03-26T20:54:26.139Z,88.35
2023-03-26T20:57:13.957Z,88.72
2023-03-26T21:00:00.931Z,88.73
2023-03-26T21:02:47.859Z,88.45
2023-03-26T21:05:35.133Z,88.74
2023-03-26T21:08:22.292Z,88.33
2023-03-26T21:11:09.375Z,88.26
2023-03-26T21:14:29.132Z,88.27
2023-03-26T21:17:16.313Z,88.40
2023-03-26T21:20:03.736Z,88.37
2023-03-26T21:23:00.011Z,88.53
2023-03-26T21:25:56.219Z,88.56
2023-03-26T21:28:56.958Z,88.85
2023-03-26T21:31:46.764Z,88.47
2023-03-26T21:34:34.215Z,88.43
2023-03-26T21:37:22.268Z,87.91
2023-03-26T21:40:09.348Z,88.30
2023-03-26T21:42:56.688Z,88.40
2023-03-26T21:45:43.964Z,88.18
2023-03-26T21:48:31.850Z,88.42
2023-03-26T21:51:19.078Z,88.20
2023-03-26T21:54:06.226Z,88.47
2023-03-26T21:57:05.210Z,88.35
2023-03-26T22:00:23.748Z,88.25
2023-03-26T22:03:18.286Z,88.04
2023-03-26T22:06:08.483Z,88.00
2023-03-26T22:09:00.350Z,88.43
2023-03-26T22:11:47.231Z,88.20
2023-03-26T22:14:34.436Z,88.17
2023-03-26T22:17:21.323Z,88.09
2023-03-26T22:20:08.441Z,88.10
2023-03-26T22:22:55.464Z,88.38
2023-03-26T22:25:44.103Z,88.02
2023-03-26T22:28:31.442Z,88.04
2023-03-26T22:31:18.482Z,88.28
2023-03-26T22:34:05.375Z,88.06
2023-03-26T22:36:52.496Z,88.06
2023-03-26T22:39:39.488Z,88.15
2023-03-26T22:42:26.395Z,88.31
2023-03-26T22:45:13.316Z,87.92
2023-03-26T22:48:04.055Z,87.68
2023-03-26T22:50:52.363Z,88.14
2023-03-26T22:53:39.305Z,88.01
2023-03-26T22:56:26.746Z,87.92
2023-03-26T22:59:13.858Z,87.85
2023-03-26T23:02:00.899Z,88.11
2023-03-26T23:04:48.129Z,87.95
2023-03-26T23:07:35.118Z,87.85
2023-03-26T23:10:22.328Z,87.94
2023-03-26T23:13:09.214Z,87.87
2023-03-26T23:15:56.369Z,87.94
2023-03-26T23:18:44.543Z,87.88
2023-03-26T23:21:36.819Z,87.81
2023-03-26T23:24:24.291Z,87.93
2023-03-26T23:27:11.284Z,87.71
2023-03-26T23:29:58.247Z,87.77
2023-03-26T23:32:45.353Z,87.93
2023-03-26T23:35:32.394Z,87.77
2023-03-26T23:38:19.422Z,87.76
2023-03-26T23:41:06.382Z,87.83
2023-03-26T23:43:55.501Z,87.65
2023-03-26T23:46:45.162Z,87.68
2023-03-26T23:49:32.079Z,87.69
2023-03-26T23:52:19.226Z,87.79
2023-03-26T23:55:06.163Z,87.65
2023-03-26T23:57:53.000Z,87.79
